sensor_id;sensor_type;location;lat;lon;timestamp;P1;durP1;ratioP1;P2;durP2;ratioP2
27758;SDS011;15148;48.972;12.794;2023-04-29T00:04:15;13.48;;;11.57;;
27758;SDS011;15148;48.972;12.794;2023-04-29T00:09:17;9.77;;;8.88;;
27758;SDS011;15148;48.972;12.794;2023-04-29T00:14:19;16.75;;;15.00;;
27758;SDS011;15148;48.972;12.794;2023-04-29T00:19:21;11.55;;;10.38;;
27758;SDS011;15148;48.972;12.794;2023-04-29T00:24:23;11.40;;;10.23;;
27758;SDS011;15148;48.972;12.794;2023-04-29T00:29:25;11.82;;;9.88;;
27758;SDS011;15148;48.972;12.794;2023-04-29T00:34:28;10.77;;;9.70;;
27758;SDS011;15148;48.972;12.794;2023-04-29T00:39:29;10.13;;;8.98;;
27758;SDS011;15148;48.972;12.794;2023-04-29T00:44:31;11.48;;;10.32;;
27758;SDS011;15148;48.972;12.794;2023-04-29T00:49:33;10.88;;;9.48;;
27758;SDS011;15148;48.972;12.794;2023-04-29T00:54:35;11.70;;;10.38;;
27758;SDS011;15148;48.972;12.794;2023-04-29T00:59:37;13.30;;;11.75;;
27758;SDS011;15148;48.972;12.794;2023-04-29T01:04:39;15.25;;;13.65;;
27758;SDS011;15148;48.972;12.794;2023-04-29T01:15:25;11.88;;;10.68;;
27758;SDS011;15148;48.972;12.794;2023-04-29T01:20:40;11.20;;;9.95;;
27758;SDS011;15148;48.972;12.794;2023-04-29T01:25:45;11.70;;;10.40;;
27758;SDS011;15148;48.972;12.794;2023-04-29T01:31:16;12.82;;;10.07;;
27758;SDS011;15148;48.972;12.794;2023-04-29T01:36:35;13.32;;;9.70;;
27758;SDS011;15148;48.972;12.794;2023-04-29T01:42:03;13.00;;;11.60;;
27758;SDS011;15148;48.972;12.794;2023-04-29T01:47:12;10.30;;;9.13;;
27758;SDS011;15148;48.972;12.794;2023-04-29T01:52:20;13.02;;;11.70;;
27758;SDS011;15148;48.972;12.794;2023-04-29T01:57:29;10.80;;;9.25;;
27758;SDS011;15148;48.972;12.794;2023-04-29T02:02:49;9.23;;;7.80;;
27758;SDS011;15148;48.972;12.794;2023-04-29T02:08:13;8.13;;;7.32;;
27758;SDS011;15148;48.972;12.794;2023-04-29T02:13:18;10.48;;;8.73;;
27758;SDS011;15148;48.972;12.794;2023-04-29T02:18:20;8.25;;;7.47;;
27758;SDS011;15148;48.972;12.794;2023-04-29T02:23:22;7.75;;;6.95;;
27758;SDS011;15148;48.972;12.794;2023-04-29T02:28:24;8.75;;;7.93;;
27758;SDS011;15148;48.972;12.794;2023-04-29T02:33:26;7.60;;;6.90;;
27758;SDS011;15148;48.972;12.794;2023-04-29T02:38:28;6.80;;;6.20;;
27758;SDS011;15148;48.972;12.794;2023-04-29T02:43:30;8.18;;;7.22;;
27758;SDS011;15148;48.972;12.794;2023-04-29T02:48:32;6.07;;;5.47;;
27758;SDS011;15148;48.972;12.794;2023-04-29T02:53:34;7.80;;;5.03;;
27758;SDS011;15148;48.972;12.794;2023-04-29T02:58:36;7.05;;;5.45;;
27758;SDS011;15148;48.972;12.794;2023-04-29T03:03:38;9.63;;;5.75;;
27758;SDS011;15148;48.972;12.794;2023-04-29T03:08:40;6.90;;;5.78;;
27758;SDS011;15148;48.972;12.794;2023-04-29T03:13:42;6.32;;;5.72;;
27758;SDS011;15148;48.972;12.794;2023-04-29T03:18:45;6.05;;;4.47;;
27758;SDS011;15148;48.972;12.794;2023-04-29T03:23:47;5.07;;;4.55;;
27758;SDS011;15148;48.972;12.794;2023-04-29T03:28:59;5.32;;;4.55;;
27758;SDS011;15148;48.972;12.794;2023-04-29T03:34:01;5.72;;;5.20;;
27758;SDS011;15148;48.972;12.794;2023-04-29T03:39:05;5.45;;;4.95;;
27758;SDS011;15148;48.972;12.794;2023-04-29T03:44:07;8.25;;;7.53;;
27758;SDS011;15148;48.972;12.794;2023-04-29T03:49:09;6.72;;;6.03;;
27758;SDS011;15148;48.972;12.794;2023-04-29T03:54:11;4.93;;;4.43;;
27758;SDS011;15148;48.972;12.794;2023-04-29T03:59:14;5.63;;;4.13;;
27758;SDS011;15148;48.972;12.794;2023-04-29T04:04:16;4.00;;;3.67;;
27758;SDS011;15148;48.972;12.794;2023-04-29T04:09:20;5.30;;;3.60;;
27758;SDS011;15148;48.972;12.794;2023-04-29T04:14:22;3.28;;;3.00;;
27758;SDS011;15148;48.972;12.794;2023-04-29T04:19:24;4.30;;;3.90;;
27758;SDS011;15148;48.972;12.794;2023-04-29T04:24:27;3.47;;;3.22;;
27758;SDS011;15148;48.972;12.794;2023-04-29T04:29:29;3.65;;;3.13;;
27758;SDS011;15148;48.972;12.794;2023-04-29T04:34:37;2.85;;;2.65;;
27758;SDS011;15148;48.972;12.794;2023-04-29T04:39:43;2.95;;;2.65;;
27758;SDS011;15148;48.972;12.794;2023-04-29T04:44:49;3.88;;;2.72;;
27758;SDS011;15148;48.972;12.794;2023-04-29T04:50:02;3.72;;;3.42;;
27758;SDS011;15148;48.972;12.794;2023-04-29T04:55:05;3.35;;;3.05;;
27758;SDS011;15148;48.972;12.794;2023-04-29T05:00:10;4.20;;;3.83;;
27758;SDS011;15148;48.972;12.794;2023-04-29T05:05:12;7.55;;;4.50;;
27758;SDS011;15148;48.972;12.794;2023-04-29T05:10:16;4.68;;;3.92;;
27758;SDS011;15148;48.972;12.794;2023-04-29T05:15:22;9.82;;;7.50;;
27758;SDS011;15148;48.972;12.794;2023-04-29T05:25:34;9.30;;;6.78;;
27758;SDS011;15148;48.972;12.794;2023-04-29T05:30:37;18.42;;;11.95;;
27758;SDS011;15148;48.972;12.794;2023-04-29T05:35:40;10.27;;;7.50;;
27758;SDS011;15148;48.972;12.794;2023-04-29T05:40:42;43.97;;;28.27;;
27758;SDS011;15148;48.972;12.794;2023-04-29T05:46:04;22.15;;;16.65;;
27758;SDS011;15148;48.972;12.794;2023-04-29T05:51:06;17.83;;;14.57;;
27758;SDS011;15148;48.972;12.794;2023-04-29T05:56:08;14.27;;;11.82;;
27758;SDS011;15148;48.972;12.794;2023-04-29T06:01:12;15.02;;;11.68;;
27758;SDS011;15148;48.972;12.794;2023-04-29T06:06:14;14.27;;;12.38;;
27758;SDS011;15148;48.972;12.794;2023-04-29T06:11:35;16.25;;;13.77;;
27758;SDS011;15148;48.972;12.794;2023-04-29T06:16:38;22.17;;;17.33;;
27758;SDS011;15148;48.972;12.794;2023-04-29T06:21:42;15.90;;;12.77;;
27758;SDS011;15148;48.972;12.794;2023-04-29T06:26:44;20.27;;;15.48;;
27758;SDS011;15148;48.972;12.794;2023-04-29T06:31:46;19.75;;;15.73;;
27758;SDS011;15148;48.972;12.794;2023-04-29T06:36:48;23.17;;;16.92;;
27758;SDS011;15148;48.972;12.794;2023-04-29T06:42:14;18.25;;;14.48;;
27758;SDS011;15148;48.972;12.794;2023-04-29T06:47:54;21.05;;;18.02;;
27758;SDS011;15148;48.972;12.794;2023-04-29T06:53:11;16.25;;;13.50;;
27758;SDS011;15148;48.972;12.794;2023-04-29T06:58:14;15.23;;;12.73;;
27758;SDS011;15148;48.972;12.794;2023-04-29T07:03:17;18.90;;;15.13;;
27758;SDS011;15148;48.972;12.794;2023-04-29T07:08:19;16.10;;;13.75;;
27758;SDS011;15148;48.972;12.794;2023-04-29T07:13:21;15.07;;;12.95;;
27758;SDS011;15148;48.972;12.794;2023-04-29T07:18:24;15.57;;;13.27;;
27758;SDS011;15148;48.972;12.794;2023-04-29T07:23:26;16.35;;;13.63;;
27758;SDS011;15148;48.972;12.794;2023-04-29T07:28:28;15.07;;;12.23;;
27758;SDS011;15148;48.972;12.794;2023-04-29T07:33:30;15.95;;;14.23;;
27758;SDS011;15148;48.972;12.794;2023-04-29T07:38:32;15.10;;;12.15;;
27758;SDS011;15148;48.972;12.794;2023-04-29T07:43:35;14.77;;;11.35;;
27758;SDS011;15148;48.972;12.794;2023-04-29T07:48:37;10.45;;;9.43;;
27758;SDS011;15148;48.972;12.794;2023-04-29T07:53:39;13.90;;;11.68;;
27758;SDS011;15148;48.972;12.794;2023-04-29T07:58:41;11.23;;;9.63;;
27758;SDS011;15148;48.972;12.794;2023-04-29T08:03:43;12.77;;;10.95;;
27758;SDS011;15148;48.972;12.794;2023-04-29T08:08:47;13.50;;;10.65;;
27758;SDS011;15148;48.972;12.794;2023-04-29T08:13:52;12.48;;;10.27;;
27758;SDS011;15148;48.972;12.794;2023-04-29T08:18:55;11.23;;;8.68;;
27758;SDS011;15148;48.972;12.794;2023-04-29T08:23:57;14.27;;;10.77;;
27758;SDS011;15148;48.972;12.794;2023-04-29T08:28:58;14.15;;;11.23;;
27758;SDS011;15148;48.972;12.794;2023-04-29T08:34:01;12.75;;;9.95;;
27758;SDS011;15148;48.972;12.794;2023-04-29T08:39:03;8.93;;;7.65;;
27758;SDS011;15148;48.972;12.794;2023-04-29T08:44:04;9.52;;;8.52;;
27758;SDS011;15148;48.972;12.794;2023-04-29T08:49:07;10.73;;;8.52;;
27758;SDS011;15148;48.972;12.794;2023-04-29T08:54:10;8.50;;;7.55;;
27758;SDS011;15148;48.972;12.794;2023-04-29T08:59:15;9.80;;;7.95;;
27758;SDS011;15148;48.972;12.794;2023-04-29T09:09:48;8.43;;;6.75;;
27758;SDS011;15148;48.972;12.794;2023-04-29T09:14:51;6.25;;;5.65;;
27758;SDS011;15148;48.972;12.794;2023-04-29T09:19:54;7.10;;;5.75;;
27758;SDS011;15148;48.972;12.794;2023-04-29T09:25:10;7.03;;;5.72;;
27758;SDS011;15148;48.972;12.794;2023-04-29T09:30:12;6.93;;;6.10;;
27758;SDS011;15148;48.972;12.794;2023-04-29T09:45:47;7.70;;;6.57;;
27758;SDS011;15148;48.972;12.794;2023-04-29T09:50:59;6.00;;;5.28;;
27758;SDS011;15148;48.972;12.794;2023-04-29T09:56:04;6.82;;;5.40;;
27758;SDS011;15148;48.972;12.794;2023-04-29T10:01:07;7.05;;;5.57;;
27758;SDS011;15148;48.972;12.794;2023-04-29T10:06:10;5.50;;;4.78;;
27758;SDS011;15148;48.972;12.794;2023-04-29T10:11:13;5.43;;;4.85;;
27758;SDS011;15148;48.972;12.794;2023-04-29T10:16:29;7.03;;;6.35;;
27758;SDS011;15148;48.972;12.794;2023-04-29T10:21:34;4.97;;;4.47;;
27758;SDS011;15148;48.972;12.794;2023-04-29T10:26:38;5.85;;;5.03;;
27758;SDS011;15148;48.972;12.794;2023-04-29T10:31:42;5.63;;;4.35;;
27758;SDS011;15148;48.972;12.794;2023-04-29T10:36:45;4.60;;;4.20;;
27758;SDS011;15148;48.972;12.794;2023-04-29T10:41:47;5.50;;;4.07;;
27758;SDS011;15148;48.972;12.794;2023-04-29T10:47:11;4.78;;;3.50;;
27758;SDS011;15148;48.972;12.794;2023-04-29T10:52:19;3.20;;;2.92;;
27758;SDS011;15148;48.972;12.794;2023-04-29T10:57:21;4.20;;;3.80;;
27758;SDS011;15148;48.972;12.794;2023-04-29T11:02:23;3.42;;;3.13;;
27758;SDS011;15148;48.972;12.794;2023-04-29T11:07:27;3.08;;;2.65;;
27758;SDS011;15148;48.972;12.794;2023-04-29T11:12:29;3.20;;;2.42;;
27758;SDS011;15148;48.972;12.794;2023-04-29T11:17:34;3.90;;;2.97;;
27758;SDS011;15148;48.972;12.794;2023-04-29T11:22:38;4.28;;;3.25;;
27758;SDS011;15148;48.972;12.794;2023-04-29T11:27:40;3.42;;;3.05;;
27758;SDS011;15148;48.972;12.794;2023-04-29T11:32:43;5.60;;;3.10;;
27758;SDS011;15148;48.972;12.794;2023-04-29T11:37:45;6.38;;;3.50;;
27758;SDS011;15148;48.972;12.794;2023-04-29T11:42:48;4.32;;;3.88;;
27758;SDS011;15148;48.972;12.794;2023-04-29T11:47:50;4.03;;;3.50;;
27758;SDS011;15148;48.972;12.794;2023-04-29T11:52:56;4.97;;;3.90;;
27758;SDS011;15148;48.972;12.794;2023-04-29T11:57:58;4.07;;;3.58;;
27758;SDS011;15148;48.972;12.794;2023-04-29T12:03:00;5.75;;;3.55;;
27758;SDS011;15148;48.972;12.794;2023-04-29T12:08:02;3.10;;;2.80;;
27758;SDS011;15148;48.972;12.794;2023-04-29T12:13:06;4.25;;;3.17;;
27758;SDS011;15148;48.972;12.794;2023-04-29T12:18:10;3.25;;;3.00;;
27758;SDS011;15148;48.972;12.794;2023-04-29T12:23:17;2.38;;;2.17;;
27758;SDS011;15148;48.972;12.794;2023-04-29T12:28:20;2.05;;;1.92;;
27758;SDS011;15148;48.972;12.794;2023-04-29T12:33:26;2.97;;;1.90;;
27758;SDS011;15148;48.972;12.794;2023-04-29T12:38:30;3.00;;;2.00;;
27758;SDS011;15148;48.972;12.794;2023-04-29T12:43:32;2.38;;;1.80;;
27758;SDS011;15148;48.972;12.794;2023-04-29T12:48:34;2.70;;;2.17;;
27758;SDS011;15148;48.972;12.794;2023-04-29T12:53:39;3.17;;;1.70;;
27758;SDS011;15148;48.972;12.794;2023-04-29T12:58:41;1.90;;;1.80;;
27758;SDS011;15148;48.972;12.794;2023-04-29T13:03:42;2.58;;;2.17;;
27758;SDS011;15148;48.972;12.794;2023-04-29T13:08:44;2.38;;;2.17;;
27758;SDS011;15148;48.972;12.794;2023-04-29T13:13:47;3.22;;;1.90;;
27758;SDS011;15148;48.972;12.794;2023-04-29T13:18:48;3.10;;;2.80;;
27758;SDS011;15148;48.972;12.794;2023-04-29T13:24:10;2.78;;;2.58;;
27758;SDS011;15148;48.972;12.794;2023-04-29T13:29:13;1.88;;;1.70;;
27758;SDS011;15148;48.972;12.794;2023-04-29T13:34:15;2.40;;;2.20;;
27758;SDS011;15148;48.972;12.794;2023-04-29T13:39:17;2.50;;;2.08;;
27758;SDS011;15148;48.972;12.794;2023-04-29T13:44:23;1.95;;;1.70;;
27758;SDS011;15148;48.972;12.794;2023-04-29T13:49:45;2.33;;;2.05;;
27758;SDS011;15148;48.972;12.794;2023-04-29T13:55:07;2.25;;;2.10;;
27758;SDS011;15148;48.972;12.794;2023-04-29T14:00:12;1.70;;;1.60;;
27758;SDS011;15148;48.972;12.794;2023-04-29T14:05:34;2.40;;;2.20;;
27758;SDS011;15148;48.972;12.794;2023-04-29T14:10:37;3.70;;;2.13;;
27758;SDS011;15148;48.972;12.794;2023-04-29T14:15:39;2.22;;;2.03;;
27758;SDS011;15148;48.972;12.794;2023-04-29T14:20:41;2.60;;;2.00;;
27758;SDS011;15148;48.972;12.794;2023-04-29T14:25:43;2.13;;;1.95;;
27758;SDS011;15148;48.972;12.794;2023-04-29T14:30:45;2.22;;;2.03;;
27758;SDS011;15148;48.972;12.794;2023-04-29T14:35:47;2.00;;;1.80;;
27758;SDS011;15148;48.972;12.794;2023-04-29T14:40:49;1.88;;;1.75;;
27758;SDS011;15148;48.972;12.794;2023-04-29T14:45:51;2.22;;;1.85;;
27758;SDS011;15148;48.972;12.794;2023-04-29T14:50:53;2.00;;;1.73;;
27758;SDS011;15148;48.972;12.794;2023-04-29T14:55:55;1.40;;;1.30;;
27758;SDS011;15148;48.972;12.794;2023-04-29T15:00:57;2.78;;;2.10;;
27758;SDS011;15148;48.972;12.794;2023-04-29T15:06:02;2.40;;;2.20;;
27758;SDS011;15148;48.972;12.794;2023-04-29T15:11:04;4.60;;;2.60;;
27758;SDS011;15148;48.972;12.794;2023-04-29T15:16:06;3.13;;;2.78;;
27758;SDS011;15148;48.972;12.794;2023-04-29T15:21:08;3.00;;;2.70;;
27758;SDS011;15148;48.972;12.794;2023-04-29T15:26:11;2.35;;;2.15;;
27758;SDS011;15148;48.972;12.794;2023-04-29T15:31:13;2.38;;;2.08;;
27758;SDS011;15148;48.972;12.794;2023-04-29T15:36:15;3.33;;;2.38;;
27758;SDS011;15148;48.972;12.794;2023-04-29T15:41:17;5.43;;;2.08;;
27758;SDS011;15148;48.972;12.794;2023-04-29T15:46:19;3.00;;;1.98;;
27758;SDS011;15148;48.972;12.794;2023-04-29T15:51:22;2.65;;;2.10;;
27758;SDS011;15148;48.972;12.794;2023-04-29T15:56:23;2.28;;;2.08;;
27758;SDS011;15148;48.972;12.794;2023-04-29T16:01:26;4.18;;;2.33;;
27758;SDS011;15148;48.972;12.794;2023-04-29T16:06:28;2.47;;;2.20;;
27758;SDS011;15148;48.972;12.794;2023-04-29T16:11:30;1.95;;;1.77;;
27758;SDS011;15148;48.972;12.794;2023-04-29T16:16:32;2.80;;;2.17;;
27758;SDS011;15148;48.972;12.794;2023-04-29T16:21:34;3.90;;;2.13;;
27758;SDS011;15148;48.972;12.794;2023-04-29T16:26:36;1.90;;;1.80;;
27758;SDS011;15148;48.972;12.794;2023-04-29T16:31:40;2.35;;;1.80;;
27758;SDS011;15148;48.972;12.794;2023-04-29T16:36:42;2.63;;;2.13;;
27758;SDS011;15148;48.972;12.794;2023-04-29T16:41:44;2.00;;;1.90;;
27758;SDS011;15148;48.972;12.794;2023-04-29T16:46:46;1.70;;;1.60;;
27758;SDS011;15148;48.972;12.794;2023-04-29T16:51:48;2.60;;;2.33;;
27758;SDS011;15148;48.972;12.794;2023-04-29T16:56:50;2.22;;;2.03;;
27758;SDS011;15148;48.972;12.794;2023-04-29T17:01:52;2.95;;;2.00;;
27758;SDS011;15148;48.972;12.794;2023-04-29T17:06:54;3.42;;;2.42;;
27758;SDS011;15148;48.972;12.794;2023-04-29T17:11:56;3.28;;;2.00;;
27758;SDS011;15148;48.972;12.794;2023-04-29T17:16:58;2.10;;;1.85;;
27758;SDS011;15148;48.972;12.794;2023-04-29T17:22:00;2.45;;;2.25;;
27758;SDS011;15148;48.972;12.794;2023-04-29T17:27:02;2.78;;;2.22;;
27758;SDS011;15148;48.972;12.794;2023-04-29T17:32:04;3.03;;;2.50;;
27758;SDS011;15148;48.972;12.794;2023-04-29T17:37:11;3.07;;;2.80;;
27758;SDS011;15148;48.972;12.794;2023-04-29T17:42:13;2.47;;;2.28;;
27758;SDS011;15148;48.972;12.794;2023-04-29T17:47:15;2.25;;;2.03;;
27758;SDS011;15148;48.972;12.794;2023-04-29T17:52:17;2.40;;;2.05;;
27758;SDS011;15148;48.972;12.794;2023-04-29T17:57:21;1.85;;;1.75;;
27758;SDS011;15148;48.972;12.794;2023-04-29T18:02:23;4.80;;;3.90;;
27758;SDS011;15148;48.972;12.794;2023-04-29T18:07:25;2.50;;;1.90;;
27758;SDS011;15148;48.972;12.794;2023-04-29T18:12:27;3.92;;;2.45;;
27758;SDS011;15148;48.972;12.794;2023-04-29T18:17:29;8.02;;;2.15;;
27758;SDS011;15148;48.972;12.794;2023-04-29T18:22:31;4.72;;;2.30;;
27758;SDS011;15148;48.972;12.794;2023-04-29T18:27:33;2.05;;;1.83;;
27758;SDS011;15148;48.972;12.794;2023-04-29T18:32:35;3.38;;;1.83;;
27758;SDS011;15148;48.972;12.794;2023-04-29T18:37:37;2.40;;;2.20;;
27758;SDS011;15148;48.972;12.794;2023-04-29T18:42:39;2.60;;;2.40;;
27758;SDS011;15148;48.972;12.794;2023-04-29T18:47:40;2.80;;;1.92;;
27758;SDS011;15148;48.972;12.794;2023-04-29T18:52:42;3.25;;;2.30;;
27758;SDS011;15148;48.972;12.794;2023-04-29T18:57:44;2.38;;;2.17;;
27758;SDS011;15148;48.972;12.794;2023-04-29T19:02:46;3.08;;;1.95;;
27758;SDS011;15148;48.972;12.794;2023-04-29T19:07:48;2.28;;;1.85;;
27758;SDS011;15148;48.972;12.794;2023-04-29T19:12:50;2.70;;;1.80;;
27758;SDS011;15148;48.972;12.794;2023-04-29T19:17:52;4.57;;;1.90;;
27758;SDS011;15148;48.972;12.794;2023-04-29T19:22:54;2.63;;;1.63;;
27758;SDS011;15148;48.972;12.794;2023-04-29T19:27:57;7.70;;;1.88;;
27758;SDS011;15148;48.972;12.794;2023-04-29T19:32:59;2.88;;;1.70;;
27758;SDS011;15148;48.972;12.794;2023-04-29T19:38:01;3.85;;;3.50;;
27758;SDS011;15148;48.972;12.794;2023-04-29T19:43:03;4.53;;;3.63;;
27758;SDS011;15148;48.972;12.794;2023-04-29T19:48:04;4.00;;;3.60;;
27758;SDS011;15148;48.972;12.794;2023-04-29T19:53:06;4.20;;;3.80;;
27758;SDS011;15148;48.972;12.794;2023-04-29T19:58:08;4.07;;;3.67;;
27758;SDS011;15148;48.972;12.794;2023-04-29T20:03:10;5.25;;;4.07;;
27758;SDS011;15148;48.972;12.794;2023-04-29T20:08:13;5.05;;;4.45;;
27758;SDS011;15148;48.972;12.794;2023-04-29T20:13:15;5.78;;;4.18;;
27758;SDS011;15148;48.972;12.794;2023-04-29T20:18:16;6.82;;;3.97;;
27758;SDS011;15148;48.972;12.794;2023-04-29T20:23:18;7.30;;;4.63;;
27758;SDS011;15148;48.972;12.794;2023-04-29T20:28:20;5.13;;;4.15;;
27758;SDS011;15148;48.972;12.794;2023-04-29T20:33:22;5.00;;;4.50;;
27758;SDS011;15148;48.972;12.794;2023-04-29T20:38:24;5.88;;;4.07;;
27758;SDS011;15148;48.972;12.794;2023-04-29T20:43:27;4.63;;;4.22;;
27758;SDS011;15148;48.972;12.794;2023-04-29T20:48:29;5.60;;;4.78;;
27758;SDS011;15148;48.972;12.794;2023-04-29T20:53:31;5.80;;;4.70;;
27758;SDS011;15148;48.972;12.794;2023-04-29T20:58:32;4.85;;;4.35;;
27758;SDS011;15148;48.972;12.794;2023-04-29T21:03:34;4.85;;;4.25;;
27758;SDS011;15148;48.972;12.794;2023-04-29T21:08:36;4.75;;;4.22;;
27758;SDS011;15148;48.972;12.794;2023-04-29T21:13:38;8.10;;;6.10;;
27758;SDS011;15148;48.972;12.794;2023-04-29T21:18:40;6.43;;;5.80;;
27758;SDS011;15148;48.972;12.794;2023-04-29T21:23:42;5.32;;;4.53;;
27758;SDS011;15148;48.972;12.794;2023-04-29T21:28:44;6.05;;;5.18;;
27758;SDS011;15148;48.972;12.794;2023-04-29T21:33:46;5.43;;;4.93;;
27758;SDS011;15148;48.972;12.794;2023-04-29T21:38:48;7.57;;;4.82;;
27758;SDS011;15148;48.972;12.794;2023-04-29T21:43:52;5.82;;;4.78;;
27758;SDS011;15148;48.972;12.794;2023-04-29T21:48:56;5.60;;;5.10;;
27758;SDS011;15148;48.972;12.794;2023-04-29T21:53:58;5.57;;;5.05;;
27758;SDS011;15148;48.972;12.794;2023-04-29T21:59:00;5.82;;;5.13;;
27758;SDS011;15148;48.972;12.794;2023-04-29T22:04:02;5.18;;;4.55;;
27758;SDS011;15148;48.972;12.794;2023-04-29T22:09:04;5.43;;;4.93;;
27758;SDS011;15148;48.972;12.794;2023-04-29T22:14:07;4.82;;;4.43;;
27758;SDS011;15148;48.972;12.794;2023-04-29T22:19:09;4.95;;;4.32;;
27758;SDS011;15148;48.972;12.794;2023-04-29T22:24:11;5.38;;;4.88;;
27758;SDS011;15148;48.972;12.794;2023-04-29T22:29:12;5.47;;;4.80;;
27758;SDS011;15148;48.972;12.794;2023-04-29T22:34:14;6.65;;;5.07;;
27758;SDS011;15148;48.972;12.794;2023-04-29T22:39:16;5.43;;;4.40;;
27758;SDS011;15148;48.972;12.794;2023-04-29T22:44:18;4.43;;;4.03;;
27758;SDS011;15148;48.972;12.794;2023-04-29T22:49:19;4.78;;;4.38;;
27758;SDS011;15148;48.972;12.794;2023-04-29T22:54:21;5.32;;;4.80;;
27758;SDS011;15148;48.972;12.794;2023-04-29T22:59:23;7.63;;;4.45;;
27758;SDS011;15148;48.972;12.794;2023-04-29T23:04:25;6.00;;;5.30;;
27758;SDS011;15148;48.972;12.794;2023-04-29T23:09:27;6.03;;;5.45;;
27758;SDS011;15148;48.972;12.794;2023-04-29T23:14:28;6.13;;;5.03;;
27758;SDS011;15148;48.972;12.794;2023-04-29T23:19:30;5.57;;;5.07;;
27758;SDS011;15148;48.972;12.794;2023-04-29T23:24:35;4.68;;;4.28;;
27758;SDS011;15148;48.972;12.794;2023-04-29T23:29:37;5.03;;;4.63;;
27758;SDS011;15148;48.972;12.794;2023-04-29T23:34:41;4.68;;;4.28;;
27758;SDS011;15148;48.972;12.794;2023-04-29T23:39:43;5.43;;;4.82;;
27758;SDS011;15148;48.972;12.794;2023-04-29T23:44:45;4.75;;;4.25;;
27758;SDS011;15148;48.972;12.794;2023-04-29T23:49:46;4.75;;;4.35;;
27758;SDS011;15148;48.972;12.794;2023-04-29T23:54:48;4.80;;;4.40;;
27758;SDS011;15148;48.972;12.794;2023-04-29T23:59:50;4.53;;;4.13;;
